Time;durP1;ratioP1;P1;durP2;ratioP2;P2;SDS_P1;SDS_P2;PMS_P1;PMS_P2;Temp;Humidity;BMP_temperature;BMP_pressure;BME280_temperature;BME280_humidity;BME280_pressure;Samples;Min_cycle;Max_cycle;Signal;HPM_P1;HPM_P2
2022/02/17 00:00:25;;;;;;;8.93;2.10;;;;;;;13.18;100.00;96352.94;5006908;28;20026;-58
2022/02/17 00:02:50;;;;;;;7.97;1.90;;;;;;;12.41;100.00;96354.38;5006827;28;20033;-59
2022/02/17 00:05:16;;;;;;;9.02;2.00;;;;;;;12.87;100.00;96345.69;5005520;28;20678;-57
2022/02/17 00:07:41;;;;;;;10.85;2.30;;;;;;;12.97;100.00;96329.25;5007079;28;20542;-58
2022/02/17 00:10:09;;;;;;;8.52;1.92;;;;;;;12.80;100.00;96341.03;5004521;28;20137;-57
2022/02/17 00:12:35;;;;;;;7.70;1.92;;;;;;;13.04;100.00;96333.06;5006609;28;20414;-57
2022/02/17 00:15:00;;;;;;;8.65;2.03;;;;;;;13.19;100.00;96329.25;5007291;28;20037;-57
2022/02/17 00:17:25;;;;;;;10.15;2.30;;;;;;;13.05;100.00;96332.09;5004800;28;20095;-59
2022/02/17 00:19:51;;;;;;;9.48;2.15;;;;;;;13.62;100.00;96328.53;5005407;28;20022;-59
2022/02/17 00:22:16;;;;;;;8.20;1.90;;;;;;;13.19;100.00;96333.66;5005264;28;20695;-58
2022/02/17 00:24:42;;;;;;;7.82;1.95;;;;;;;13.19;100.00;96334.50;5006764;28;20076;-57
2022/02/17 00:27:08;;;;;;;8.57;1.98;;;;;;;13.02;100.00;96332.38;5006475;28;20136;-58
2022/02/17 00:29:33;;;;;;;7.55;1.90;;;;;;;13.55;100.00;96329.97;5006613;28;20163;-58
2022/02/17 00:31:59;;;;;;;7.70;1.83;;;;;;;13.24;100.00;96327.13;5006164;28;20037;-58
2022/02/17 00:34:24;;;;;;;6.93;1.75;;;;;;;13.03;100.00;96313.94;5005974;28;20021;-58
2022/02/17 00:36:50;;;;;;;9.45;1.98;;;;;;;12.83;100.00;96315.47;5005990;28;20157;-58
2022/02/17 00:39:15;;;;;;;7.10;1.70;;;;;;;13.32;100.00;96302.97;5006595;28;20028;-58
2022/02/17 00:41:41;;;;;;;9.32;2.10;;;;;;;13.42;100.00;96297.88;5004658;28;20034;-59
2022/02/17 00:44:06;;;;;;;6.75;1.70;;;;;;;13.05;100.00;96311.16;5006145;28;20029;-59
2022/02/17 00:46:32;;;;;;;6.55;1.58;;;;;;;13.25;100.00;96292.16;5005047;28;20041;-58
2022/02/17 00:48:57;;;;;;;9.80;2.28;;;;;;;12.92;100.00;96306.06;5005904;28;20117;-57
2022/02/17 00:51:23;;;;;;;7.55;1.60;;;;;;;13.16;100.00;96307.72;5008041;28;20636;-56
2022/02/17 00:53:48;;;;;;;8.55;2.00;;;;;;;13.48;100.00;96302.59;5008098;28;20029;-58
2022/02/17 00:56:14;;;;;;;7.47;1.73;;;;;;;13.01;100.00;96288.81;5005099;28;20757;-58
2022/02/17 00:58:39;;;;;;;8.65;2.03;;;;;;;14.16;100.00;96297.13;5005662;28;20026;-57
2022/02/17 01:01:04;;;;;;;9.30;2.20;;;;;;;13.42;100.00;96293.44;5006116;28;20041;-58
2022/02/17 01:03:29;;;;;;;7.15;1.80;;;;;;;13.42;100.00;96305.72;5007282;28;20037;-58
2022/02/17 01:05:55;;;;;;;6.72;1.83;;;;;;;13.51;100.00;96291.88;5006735;28;20042;-59
2022/02/17 01:08:20;;;;;;;6.45;1.67;;;;;;;13.76;100.00;96279.41;5005579;28;20026;-57
2022/02/17 01:10:46;;;;;;;8.48;1.90;;;;;;;13.27;100.00;96299.84;5006305;28;20045;-57
2022/02/17 01:13:11;;;;;;;8.50;2.00;;;;;;;13.27;100.00;96305.09;5006548;28;20026;-59
2022/02/17 01:15:37;;;;;;;7.82;1.90;;;;;;;13.65;100.00;96303.88;5004686;28;20034;-57
2022/02/17 01:18:03;;;;;;;7.28;1.80;;;;;;;13.73;100.00;96291.00;5006327;28;21017;-58
2022/02/17 01:20:28;;;;;;;8.55;2.00;;;;;;;13.75;100.00;96299.56;5005457;28;20801;-58
2022/02/17 01:22:54;;;;;;;6.75;1.60;;;;;;;13.44;100.00;96296.78;5006772;28;20848;-58
2022/02/17 01:25:19;;;;;;;8.88;2.10;;;;;;;13.72;100.00;96310.28;5007712;28;20021;-56
2022/02/17 01:27:44;;;;;;;7.88;1.95;;;;;;;13.85;100.00;96283.91;5006609;28;20056;-58
2022/02/17 01:30:11;;;;;;;7.88;1.85;;;;;;;13.55;100.00;96288.06;5004957;28;20100;-58
2022/02/17 01:32:36;;;;;;;8.98;2.08;;;;;;;13.04;100.00;96276.31;5006489;28;20033;-57
2022/02/17 01:35:02;;;;;;;7.95;1.92;;;;;;;13.59;100.00;96286.03;5004110;28;20014;-57
2022/02/17 01:37:28;;;;;;;8.60;2.10;;;;;;;13.46;100.00;96278.31;5007805;28;20092;-58
2022/02/17 01:39:53;;;;;;;7.00;1.70;;;;;;;12.76;100.00;96275.03;5006138;28;20091;-56
2022/02/17 01:42:19;;;;;;;8.77;2.13;;;;;;;13.95;100.00;96279.59;5004735;28;20048;-57
2022/02/17 01:44:46;;;;;;;9.65;2.22;;;;;;;14.12;100.00;96266.88;5006340;28;20025;-58
2022/02/17 01:47:14;;;;;;;6.50;1.67;;;;;;;13.82;100.00;96271.91;5006788;28;20046;-56
2022/02/17 01:49:41;;;;;;;8.13;1.88;;;;;;;13.50;100.00;96258.78;5006188;28;20029;-57
2022/02/17 01:52:07;;;;;;;6.68;1.67;;;;;;;13.69;100.00;96258.13;5005486;28;20044;-58
2022/02/17 01:54:33;;;;;;;8.27;2.08;;;;;;;13.93;100.00;96260.53;5007104;28;20549;-58
2022/02/17 01:57:00;;;;;;;9.25;2.00;;;;;;;14.30;100.00;96249.63;5008477;28;20113;-57
2022/02/17 01:59:27;;;;;;;8.63;2.00;;;;;;;13.83;100.00;96255.22;5008718;28;20021;-57
2022/02/17 02:01:52;;;;;;;6.97;1.73;;;;;;;13.20;100.00;96228.03;5009982;28;20121;-59
2022/02/17 02:04:18;;;;;;;8.05;1.90;;;;;;;13.78;100.00;96193.66;5008496;28;20702;-60
2022/02/17 02:06:43;;;;;;;7.35;1.88;;;;;;;13.58;100.00;96183.06;5008729;28;20136;-61
2022/02/17 02:09:11;;;;;;;7.88;1.90;;;;;;;13.51;100.00;96202.84;5008921;28;20502;-58
2022/02/17 02:11:36;;;;;;;9.15;2.15;;;;;;;13.62;100.00;96194.94;5008600;28;20144;-59
2022/02/17 02:14:02;;;;;;;9.88;2.33;;;;;;;14.02;100.00;96211.75;5010969;28;20125;-61
2022/02/17 02:16:27;;;;;;;7.93;2.00;;;;;;;14.05;100.00;96217.56;5008407;28;20706;-60
2022/02/17 02:18:52;;;;;;;9.77;2.10;;;;;;;14.70;100.00;96196.38;5009840;28;20037;-59
2022/02/17 02:21:22;;;;;;;10.25;2.03;;;;;;;13.95;100.00;96187.00;5009066;28;20057;-59
2022/02/17 02:23:48;;;;;;;8.20;1.92;;;;;;;14.00;100.00;96171.72;5008130;28;20033;-59
2022/02/17 02:26:13;;;;;;;8.55;1.90;;;;;;;14.29;100.00;96166.66;5008783;28;20084;-60
2022/02/17 02:28:39;;;;;;;7.55;1.75;;;;;;;14.05;100.00;96175.63;5008261;28;20025;-60
2022/02/17 02:31:05;;;;;;;6.93;1.55;;;;;;;13.72;100.00;96157.50;5007351;28;20044;-60
2022/02/17 02:33:30;;;;;;;6.65;1.80;;;;;;;13.36;100.00;96170.03;5007273;28;20022;-59
2022/02/17 02:35:56;;;;;;;7.30;1.83;;;;;;;13.80;100.00;96160.28;5007552;28;20042;-60
2022/02/17 02:38:21;;;;;;;8.95;2.10;;;;;;;14.58;100.00;96158.94;5011423;28;20018;-60
2022/02/17 02:40:47;;;;;;;6.78;1.73;;;;;;;13.81;100.00;96148.88;5007387;28;20068;-59
2022/02/17 02:43:14;;;;;;;8.23;1.98;;;;;;;13.78;100.00;96146.50;5008430;28;20075;-58
2022/02/17 02:45:39;;;;;;;7.70;1.80;;;;;;;13.74;100.00;96163.44;5006996;28;20033;-61
2022/02/17 02:48:07;;;;;;;6.10;1.52;;;;;;;14.03;100.00;96135.63;5008705;28;20033;-59
2022/02/17 02:50:33;;;;;;;9.60;2.15;;;;;;;14.19;100.00;96118.56;5009644;28;20508;-61
2022/02/17 02:52:58;;;;;;;9.13;2.08;;;;;;;13.90;100.00;96114.03;5008365;28;20030;-61
2022/02/17 02:55:24;;;;;;;6.28;1.73;;;;;;;13.84;100.00;96125.00;5006870;28;20450;-60
2022/02/17 02:57:50;;;;;;;7.05;1.70;;;;;;;13.97;100.00;96124.81;5008086;28;20039;-57
2022/02/17 03:00:15;;;;;;;7.70;1.90;;;;;;;14.12;100.00;96120.09;5010131;28;20029;-56
2022/02/17 03:02:40;;;;;;;9.52;1.90;;;;;;;14.57;100.00;96117.91;5008562;28;20030;-58
2022/02/17 03:05:06;;;;;;;9.02;2.03;;;;;;;14.08;100.00;96109.84;5009453;28;20029;-57
2022/02/17 03:07:32;;;;;;;8.18;1.90;;;;;;;14.07;100.00;96129.13;5008979;28;20559;-59
2022/02/17 03:09:57;;;;;;;6.93;1.67;;;;;;;14.57;100.00;96128.41;5007789;28;20030;-58
2022/02/17 03:12:22;;;;;;;6.32;1.70;;;;;;;14.43;100.00;96137.44;5007606;28;20049;-57
2022/02/17 03:14:48;;;;;;;7.25;1.85;;;;;;;14.82;100.00;96121.84;5007150;28;20030;-58
2022/02/17 03:17:14;;;;;;;7.05;1.90;;;;;;;14.84;100.00;96132.22;5008157;28;20033;-58
2022/02/17 03:19:39;;;;;;;6.80;1.55;;;;;;;13.96;100.00;96094.34;5011224;28;20026;-59
2022/02/17 03:22:04;;;;;;;8.35;2.05;;;;;;;14.42;100.00;96129.72;5005606;28;20038;-59
2022/02/17 03:24:30;;;;;;;6.55;1.70;;;;;;;14.10;100.00;96120.22;5008083;28;20112;-58
2022/02/17 03:26:55;;;;;;;8.00;1.95;;;;;;;14.13;100.00;96119.09;5006962;28;20053;-59
2022/02/17 03:29:21;;;;;;;6.28;1.60;;;;;;;14.00;100.00;96120.13;5008677;28;20017;-58
2022/02/17 03:31:46;;;;;;;8.40;2.10;;;;;;;15.32;100.00;96117.47;5007118;28;20050;-59
2022/02/17 03:34:12;;;;;;;8.70;2.00;;;;;;;14.73;100.00;96113.97;5008720;28;20034;-58
2022/02/17 03:36:37;;;;;;;5.10;1.42;;;;;;;14.54;100.00;96106.81;5007853;28;20052;-58
2022/02/17 03:39:03;;;;;;;8.93;2.10;;;;;;;14.92;100.00;96100.03;5009161;28;20034;-59
2022/02/17 03:41:29;;;;;;;7.03;1.60;;;;;;;14.25;100.00;96090.03;5006273;28;20108;-59
2022/02/17 03:43:54;;;;;;;8.73;2.03;;;;;;;14.42;100.00;96114.81;5007291;28;20691;-58
2022/02/17 03:46:20;;;;;;;10.23;2.22;;;;;;;14.51;100.00;96101.88;5005241;28;20041;-60
2022/02/17 03:48:45;;;;;;;6.90;1.75;;;;;;;13.53;100.00;96077.84;5006803;28;20038;-60
2022/02/17 03:51:10;;;;;;;6.45;1.60;;;;;;;14.66;100.00;96053.31;5006729;28;20037;-59
2022/02/17 03:53:36;;;;;;;6.72;1.70;;;;;;;14.19;100.00;96071.38;5007378;28;20022;-58
2022/02/17 03:56:02;;;;;;;8.55;2.10;;;;;;;15.12;100.00;96069.38;5005627;28;20046;-59
2022/02/17 04:01:11;;;;;;;6.88;1.70;;;;;;;14.82;100.00;96069.38;5007277;28;20087;-59
2022/02/17 04:03:36;;;;;;;7.88;1.90;;;;;;;13.82;100.00;96085.00;5007300;28;20025;-59
2022/02/17 04:06:02;;;;;;;7.60;1.90;;;;;;;14.22;100.00;96090.28;5006519;28;20034;-58
2022/02/17 04:08:27;;;;;;;6.72;1.70;;;;;;;14.43;100.00;96079.75;5007098;28;20088;-58
2022/02/17 04:10:52;;;;;;;7.82;1.90;;;;;;;14.51;100.00;96097.44;5009995;28;20045;-59
2022/02/17 04:13:18;;;;;;;6.82;1.77;;;;;;;15.00;100.00;96090.53;5009364;28;20029;-59
2022/02/17 04:15:43;;;;;;;8.30;2.10;;;;;;;15.53;100.00;96073.50;5005594;28;20525;-58
2022/02/17 04:18:09;;;;;;;9.25;2.22;;;;;;;14.38;100.00;96081.94;5006461;28;20029;-59
2022/02/17 04:20:34;;;;;;;8.00;1.73;;;;;;;14.14;100.00;96074.41;5007967;28;20120;-59
2022/02/17 04:22:59;;;;;;;10.90;2.50;;;;;;;14.36;100.00;96073.38;5007723;28;20087;-59
2022/02/17 04:25:24;;;;;;;6.00;1.58;;;;;;;15.33;100.00;96067.44;5005884;28;20906;-59
2022/02/17 04:27:50;;;;;;;6.63;1.73;;;;;;;14.64;100.00;96078.88;5007732;28;20218;-59
2022/02/17 04:30:15;;;;;;;6.43;1.55;;;;;;;15.17;100.00;96083.75;5005955;28;20118;-60
2022/02/17 04:32:41;;;;;;;9.18;1.75;;;;;;;15.23;100.00;96092.88;5004578;28;20037;-59
2022/02/17 04:35:07;;;;;;;7.35;1.85;;;;;;;14.90;100.00;96104.59;5003565;28;20068;-59
2022/02/17 04:37:32;;;;;;;6.45;1.70;;;;;;;15.55;100.00;96095.22;5007587;28;20084;-58
2022/02/17 04:40:00;;;;;;;7.10;1.77;;;;;;;15.45;100.00;96097.00;5006315;28;20037;-57
2022/02/17 04:42:26;;;;;;;8.52;1.80;;;;;;;15.17;100.00;96115.25;5004132;28;20045;-59
2022/02/17 04:44:52;;;;;;;10.05;2.13;;;;;;;14.61;100.00;96116.69;5021867;28;20053;-59
2022/02/17 04:47:17;;;;;;;7.20;1.98;;;;;;;15.93;100.00;96109.25;5003347;28;20088;-58
2022/02/17 04:49:43;;;;;;;6.63;1.73;;;;;;;15.40;100.00;96089.56;5005793;28;20030;-57
2022/02/17 04:52:09;;;;;;;5.78;1.50;;;;;;;14.76;100.00;96111.91;5008318;28;20042;-59
2022/02/17 04:54:35;;;;;;;8.20;1.90;;;;;;;15.67;100.00;96077.47;5006293;28;20110;-58
2022/02/17 04:57:02;;;;;;;6.53;1.70;;;;;;;15.31;100.00;96110.56;5006963;28;20066;-59
2022/02/17 04:59:27;;;;;;;7.07;1.88;;;;;;;17.01;100.00;96091.19;5006539;28;20525;-59
2022/02/17 05:01:53;;;;;;;7.25;1.60;;;;;;;15.08;100.00;96116.09;5006670;28;20033;-59
2022/02/17 05:04:18;;;;;;;6.28;1.70;;;;;;;15.14;100.00;96128.66;5005917;28;20159;-58
2022/02/17 05:06:43;;;;;;;8.50;1.88;;;;;;;15.76;100.00;96126.59;5005040;28;20069;-58
2022/02/17 05:09:09;;;;;;;6.50;1.70;;;;;;;15.40;100.00;96134.22;5007725;28;20053;-59
2022/02/17 05:11:34;;;;;;;7.97;1.90;;;;;;;15.10;100.00;96124.66;5005353;28;20072;-58
2022/02/17 05:13:59;;;;;;;6.32;1.70;;;;;;;15.76;100.00;96158.13;5006665;28;20145;-59
2022/02/17 05:16:25;;;;;;;6.57;1.75;;;;;;;15.27;100.00;96135.44;5005073;28;20607;-59
2022/02/17 05:18:50;;;;;;;7.93;1.98;;;;;;;17.02;100.00;96135.00;5005964;28;20439;-60
2022/02/17 05:21:16;;;;;;;7.75;1.98;;;;;;;15.33;100.00;96142.75;5005766;28;20157;-58
2022/02/17 05:23:41;;;;;;;7.43;2.00;;;;;;;15.45;100.00;96157.44;5006123;28;20026;-59
2022/02/17 05:26:06;;;;;;;5.07;1.50;;;;;;;15.04;100.00;96156.72;5004611;28;20052;-57
2022/02/17 05:28:32;;;;;;;6.05;1.67;;;;;;;16.60;100.00;96155.69;5006825;28;20033;-58
2022/02/17 05:30:57;;;;;;;5.40;1.50;;;;;;;15.54;100.00;96179.41;5009956;28;20861;-58
2022/02/17 05:33:23;;;;;;;6.65;1.70;;;;;;;16.29;100.00;96185.72;5009531;28;20527;-57
2022/02/17 05:35:49;;;;;;;6.97;1.90;;;;;;;15.36;100.00;96189.78;5010444;28;20104;-59
2022/02/17 05:38:15;;;;;;;9.25;1.85;;;;;;;16.14;100.00;96181.88;5008898;28;20032;-59
2022/02/17 05:40:40;;;;;;;6.85;2.00;;;;;;;15.16;100.00;96196.78;5009253;28;20037;-59
2022/02/17 05:43:06;;;;;;;8.38;2.13;;;;;;;15.19;100.00;96186.84;5007795;28;20029;-58
2022/02/17 05:45:32;;;;;;;7.50;2.13;;;;;;;15.13;100.00;96204.97;5007855;28;20600;-58
2022/02/17 05:47:57;;;;;;;8.10;2.33;;;;;;;15.21;100.00;96211.19;5010087;28;20491;-57
2022/02/17 05:50:23;;;;;;;7.38;1.98;;;;;;;14.35;100.00;96226.44;5008221;28;20641;-57
2022/02/17 05:52:49;;;;;;;6.38;1.77;;;;;;;15.02;100.00;96237.41;5009795;28;20099;-57
2022/02/17 05:55:17;;;;;;;6.63;1.80;;;;;;;14.98;100.00;96230.75;5008135;28;20033;-59
2022/02/17 05:57:42;;;;;;;6.82;1.75;;;;;;;14.33;100.00;96241.47;5011641;28;20033;-58
2022/02/17 06:00:09;;;;;;;9.38;1.88;;;;;;;15.48;100.00;96238.59;5008896;28;20030;-57
2022/02/17 06:02:35;;;;;;;4.57;1.40;;;;;;;14.77;100.00;96234.25;5008199;28;20025;-60
2022/02/17 06:05:00;;;;;;;6.57;1.80;;;;;;;13.79;100.00;96235.47;5012181;28;20134;-59
2022/02/17 06:07:25;;;;;;;6.85;1.70;;;;;;;14.69;100.00;96241.97;5012052;28;20136;-59
2022/02/17 06:09:51;;;;;;;5.70;1.48;;;;;;;14.53;100.00;96236.34;5012252;28;20348;-59
2022/02/17 06:12:16;;;;;;;5.15;1.40;;;;;;;14.19;100.00;96250.50;5010728;28;20060;-59
2022/02/17 06:14:42;;;;;;;6.60;1.70;;;;;;;15.09;100.00;96259.53;5014154;28;20152;-58
2022/02/17 06:17:07;;;;;;;5.57;1.52;;;;;;;14.54;100.00;96249.34;5011633;28;20041;-59
2022/02/17 06:19:32;;;;;;;6.93;1.88;;;;;;;14.70;100.00;96255.91;5013147;28;20391;-60
2022/02/17 06:21:58;;;;;;;5.07;1.50;;;;;;;15.35;100.00;96269.56;5012090;28;20038;-59
2022/02/17 06:24:23;;;;;;;6.80;1.80;;;;;;;14.34;100.00;96269.38;5011412;28;20079;-59
2022/02/17 06:26:49;;;;;;;6.63;1.55;;;;;;;15.35;100.00;96285.31;5012168;28;20050;-58
2022/02/17 06:29:14;;;;;;;4.35;1.27;;;;;;;14.83;100.00;96309.88;5011126;28;20038;-59
2022/02/17 06:31:40;;;;;;;5.60;1.60;;;;;;;15.24;100.00;96325.66;5012208;28;20045;-59
2022/02/17 06:34:05;;;;;;;5.88;1.70;;;;;;;13.68;100.00;96335.88;5013215;28;20029;-58
2022/02/17 06:36:31;;;;;;;6.40;1.77;;;;;;;17.19;100.00;96336.19;5012670;28;20069;-58
2022/02/17 06:38:56;;;;;;;4.90;1.50;;;;;;;19.69;100.00;96343.25;5012704;28;20104;-60
2022/02/17 06:41:23;;;;;;;5.50;1.40;;;;;;;20.04;100.00;96355.44;5010394;28;20044;-59
2022/02/17 06:43:49;;;;;;;5.47;1.58;;;;;;;20.08;100.00;96356.75;5010085;28;20149;-59
2022/02/17 06:46:14;;;;;;;7.30;2.10;;;;;;;19.58;100.00;96352.28;5010718;28;20137;-58
2022/02/17 06:48:40;;;;;;;8.75;2.58;;;;;;;21.01;100.00;96376.00;5012264;28;20157;-59
2022/02/17 06:51:06;;;;;;;6.60;2.08;;;;;;;21.46;100.00;96375.44;5010837;28;20149;-59
2022/02/17 06:53:31;;;;;;;7.53;2.30;;;;;;;21.37;100.00;96379.91;5013541;28;20552;-58
2022/02/17 06:55:57;;;;;;;10.70;3.25;;;;;;;20.05;100.00;96386.19;5002742;28;20617;-59
2022/02/17 06:58:23;;;;;;;10.75;3.20;;;;;;;18.63;100.00;96376.78;5012916;28;20029;-59
2022/02/17 07:00:49;;;;;;;7.78;2.70;;;;;;;20.91;100.00;96392.91;5009857;28;20095;-59
2022/02/17 07:03:14;;;;;;;12.02;3.10;;;;;;;19.45;87.83;96409.06;5010796;28;20036;-58
2022/02/17 07:05:40;;;;;;;10.95;2.90;;;;;;;17.42;100.00;96413.06;5010213;28;20432;-60
2022/02/17 07:08:06;;;;;;;8.45;2.70;;;;;;;16.49;100.00;96427.75;5012842;28;20025;-58
2022/02/17 07:13:15;;;;;;;17.05;2.70;;;;;;;16.69;100.00;96450.47;5012047;28;20623;-58
2022/02/17 07:15:43;;;;;;;9.18;2.67;;;;;;;16.93;100.00;96455.34;5010549;28;20136;-59
2022/02/17 07:18:10;;;;;;;9.90;2.53;;;;;;;17.73;100.00;96465.53;5011957;28;20242;-59
2022/02/17 07:20:37;;;;;;;9.35;2.50;;;;;;;14.96;93.89;96479.44;5008896;28;20057;-60
2022/02/17 07:23:04;;;;;;;8.05;2.38;;;;;;;16.03;100.00;96484.44;5010215;28;20025;-59
2022/02/17 07:25:29;;;;;;;7.05;2.40;;;;;;;16.21;100.00;96503.88;5011803;28;20037;-60
2022/02/17 07:27:54;;;;;;;8.90;2.08;;;;;;;16.54;100.00;96488.69;5008634;28;20021;-59
2022/02/17 07:30:20;;;;;;;9.98;2.70;;;;;;;13.72;94.13;96491.06;5009953;28;20178;-58
2022/02/17 07:32:46;;;;;;;7.78;2.30;;;;;;;18.05;100.00;96495.97;5009437;28;20068;-59
2022/02/17 07:35:12;;;;;;;9.73;2.25;;;;;;;16.99;100.00;96514.50;5010429;28;20108;-58
2022/02/17 07:37:38;;;;;;;7.97;2.30;;;;;;;19.00;100.00;96518.44;5009115;28;20138;-59
2022/02/17 07:40:06;;;;;;;13.00;2.40;;;;;;;20.56;100.00;96532.59;5009924;28;20080;-59
2022/02/17 07:42:31;;;;;;;7.20;2.22;;;;;;;19.30;75.82;96534.03;5010518;28;20587;-59
2022/02/17 07:44:59;;;;;;;7.55;2.20;;;;;;;20.65;100.00;96535.31;5010394;28;20037;-58
2022/02/17 07:47:24;;;;;;;12.18;2.30;;;;;;;17.59;71.10;96521.34;5010683;28;20033;-59
2022/02/17 07:49:49;;;;;;;11.57;2.65;;;;;;;17.39;72.32;96513.50;5010344;28;20034;-60
2022/02/17 07:52:15;;;;;;;7.75;2.20;;;;;;;18.14;100.00;96525.91;5008351;28;20068;-59
2022/02/17 07:54:41;;;;;;;11.68;2.47;;;;;;;18.06;100.00;96505.53;5009149;28;20033;-60
2022/02/17 07:57:06;;;;;;;7.53;2.25;;;;;;;17.18;89.18;96523.38;5012683;28;20038;-60
2022/02/17 07:59:31;;;;;;;8.38;2.38;;;;;;;17.07;100.00;96548.88;5009737;28;20029;-61
2022/02/17 08:01:57;;;;;;;8.02;2.10;;;;;;;18.62;85.42;96546.78;5009941;28;20041;-60
2022/02/17 08:04:23;;;;;;;5.85;1.98;;;;;;;20.44;100.00;96547.13;5010405;28;20034;-61
2022/02/17 08:06:48;;;;;;;9.60;2.35;;;;;;;19.19;100.00;96569.50;5009275;28;20065;-58
2022/02/17 08:09:13;;;;;;;9.98;2.10;;;;;;;18.66;100.00;96569.25;5011075;28;20033;-60
2022/02/17 08:11:39;;;;;;;8.13;2.20;;;;;;;18.57;88.72;96550.84;5011047;28;20116;-60
2022/02/17 08:14:04;;;;;;;9.27;2.20;;;;;;;18.95;100.00;96552.44;5008215;28;20101;-59
2022/02/17 08:16:30;;;;;;;8.63;2.22;;;;;;;16.98;96.14;96564.69;5008841;28;20038;-58
2022/02/17 08:18:55;;;;;;;7.43;2.20;;;;;;;19.02;97.13;96577.25;5009644;28;20068;-57
2022/02/17 08:21:21;;;;;;;7.57;2.63;;;;;;;17.54;100.00;96572.72;5007531;28;20068;-60
2022/02/17 08:23:47;;;;;;;7.35;2.30;;;;;;;18.41;100.00;96586.63;5010450;28;20029;-58
2022/02/17 08:26:13;;;;;;;9.15;2.38;;;;;;;17.02;100.00;96569.56;5009487;28;20038;-59
2022/02/17 08:28:38;;;;;;;6.65;2.00;;;;;;;18.32;100.00;96570.84;5009153;28;20033;-58
2022/02/17 08:31:04;;;;;;;8.20;2.30;;;;;;;19.02;100.00;96579.06;5010710;28;20030;-59
2022/02/17 08:33:29;;;;;;;8.02;2.20;;;;;;;18.66;100.00;96579.81;5009600;28;20104;-58
2022/02/17 08:35:54;;;;;;;8.80;2.70;;;;;;;18.61;100.00;96592.63;5007828;28;20042;-60
2022/02/17 08:38:20;;;;;;;7.50;2.22;;;;;;;17.16;100.00;96563.03;4990287;28;20040;-57
2022/02/17 08:40:45;;;;;;;7.82;2.20;;;;;;;19.67;100.00;96583.22;5009302;28;20069;-59
2022/02/17 08:43:13;;;;;;;6.25;2.22;;;;;;;17.79;100.00;96565.19;5009763;28;20727;-60
2022/02/17 08:45:43;;;;;;;10.38;2.47;;;;;;;16.72;100.00;96529.16;5009503;28;20407;-58
2022/02/17 08:48:09;;;;;;;9.35;2.50;;;;;;;17.42;100.00;96560.66;5009630;28;20025;-59
2022/02/17 08:50:36;;;;;;;7.18;2.10;;;;;;;17.82;83.76;96585.16;5007620;28;20092;-59
2022/02/17 08:53:01;;;;;;;7.45;2.40;;;;;;;18.46;100.00;96530.75;5008010;28;20025;-59
2022/02/17 08:55:27;;;;;;;8.95;2.50;;;;;;;18.44;100.00;96559.13;5008391;28;20030;-59
2022/02/17 08:57:53;;;;;;;8.30;2.55;;;;;;;19.78;100.00;96581.22;5010363;28;20030;-59
2022/02/17 09:00:19;;;;;;;12.20;2.40;;;;;;;16.97;82.83;96579.66;5009229;28;20026;-59
2022/02/17 09:02:45;;;;;;;8.90;2.40;;;;;;;17.69;100.00;96591.53;5008768;28;20161;-58
2022/02/17 09:05:10;;;;;;;7.35;2.00;;;;;;;16.39;92.22;96585.59;5013443;28;20046;-58
2022/02/17 09:07:36;;;;;;;11.75;2.35;;;;;;;17.77;73.54;96604.03;5012520;28;20120;-58
2022/02/17 09:10:01;;;;;;;9.40;2.38;;;;;;;18.44;94.18;96588.16;5013744;28;20022;-59
2022/02/17 09:12:30;;;;;;;8.15;2.20;;;;;;;19.15;100.00;96610.38;5012557;28;20240;-58
2022/02/17 09:14:56;;;;;;;9.68;2.92;;;;;;;18.38;100.00;96618.59;5014814;28;20223;-58
2022/02/17 09:17:21;;;;;;;7.97;1.95;;;;;;;20.08;100.00;96608.19;5013314;28;20037;-60
2022/02/17 09:19:47;;;;;;;7.97;2.10;;;;;;;17.88;100.00;96619.75;5012207;28;20026;-60
2022/02/17 09:22:12;;;;;;;8.10;2.05;;;;;;;19.72;100.00;96618.84;5012562;28;20080;-59
2022/02/17 09:24:38;;;;;;;9.35;2.20;;;;;;;17.67;100.00;96633.03;5013542;28;20033;-60
2022/02/17 09:27:03;;;;;;;8.27;2.38;;;;;;;19.13;100.00;96612.34;5013492;28;20403;-60
2022/02/17 09:29:29;;;;;;;7.13;1.95;;;;;;;18.99;100.00;96627.75;5014034;28;20030;-58
2022/02/17 09:31:54;;;;;;;6.00;1.83;;;;;;;18.76;100.00;96615.91;5013452;28;20447;-59
2022/02/17 09:34:20;;;;;;;5.45;1.60;;;;;;;18.30;100.00;96631.69;5013818;28;20550;-60
2022/02/17 09:36:45;;;;;;;5.93;2.00;;;;;;;17.72;100.00;96632.63;5011775;28;20570;-59
2022/02/17 09:39:11;;;;;;;7.55;1.85;;;;;;;17.81;100.00;96620.38;5013824;28;20036;-60
2022/02/17 09:41:36;;;;;;;6.45;2.08;;;;;;;17.59;100.00;96661.06;5011580;28;20399;-57
2022/02/17 09:44:08;;;;;;;8.27;2.13;;;;;;;17.04;100.00;96693.19;5012497;28;20044;-59
2022/02/17 09:46:35;;;;;;;6.35;1.90;;;;;;;16.97;100.00;96698.19;5011315;28;20045;-59
2022/02/17 09:49:01;;;;;;;6.63;1.70;;;;;;;17.94;100.00;96704.53;5014756;28;20240;-58
2022/02/17 09:51:31;;;;;;;8.70;2.00;;;;;;;17.26;100.00;96721.13;5011363;28;20377;-59
2022/02/17 09:53:58;;;;;;;8.48;2.03;;;;;;;16.46;100.00;96712.22;5012131;28;20510;-58
2022/02/17 09:56:25;;;;;;;7.70;2.33;;;;;;;16.31;100.00;96730.97;5012639;28;20136;-59
2022/02/17 09:58:51;;;;;;;5.78;1.92;;;;;;;18.06;100.00;96719.25;5014174;28;20047;-57
2022/02/17 10:01:26;;;;;;;8.07;2.13;;;;;;;18.88;100.00;96721.25;5012891;28;20057;-59
2022/02/17 10:04:09;;;;;;;6.57;2.10;;;;;;;19.86;100.00;96717.19;5012883;28;20026;-58
2022/02/17 10:06:43;;;;;;;6.95;2.00;;;;;;;19.04;100.00;96733.84;5012204;28;20052;-58
2022/02/17 10:09:09;;;;;;;7.28;2.20;;;;;;;19.23;100.00;96751.41;5020854;28;20029;-58
2022/02/17 10:11:35;;;;;;;7.30;2.40;;;;;;;18.82;96.57;96724.50;5013288;28;20038;-59
2022/02/17 10:14:06;;;;;;;7.03;2.28;;;;;;;18.43;100.00;96742.22;5012644;28;20569;-59
2022/02/17 10:16:56;;;;;;;8.52;2.17;;;;;;;16.55;100.00;96730.69;5012165;28;20519;-58
2022/02/17 10:19:27;;;;;;;8.50;2.38;;;;;;;18.00;93.45;96754.09;5012547;28;20030;-59
2022/02/17 10:22:13;;;;;;;6.25;2.05;;;;;;;19.88;100.00;96746.97;5012525;28;20057;-60
2022/02/17 10:24:40;;;;;;;6.78;2.45;;;;;;;18.26;89.18;96752.53;5013381;28;20030;-59
2022/02/17 10:27:09;;;;;;;7.43;2.17;;;;;;;19.60;100.00;96754.94;5011701;28;20801;-59
2022/02/17 10:29:35;;;;;;;6.88;2.13;;;;;;;17.39;100.00;96750.69;5010852;28;20054;-60
2022/02/17 10:32:12;;;;;;;8.75;2.28;;;;;;;19.11;100.00;96742.00;5012488;28;20045;-58
2022/02/17 10:34:40;;;;;;;6.00;1.90;;;;;;;21.05;100.00;96759.03;5010669;28;20741;-58
2022/02/17 10:37:07;;;;;;;5.57;1.65;;;;;;;20.99;100.00;96740.13;5011015;28;20038;-58
2022/02/17 10:39:36;;;;;;;7.03;2.20;;;;;;;18.99;100.00;96744.00;5011568;28;20018;-61
2022/02/17 10:42:08;;;;;;;7.82;2.40;;;;;;;19.53;100.00;96751.22;5011334;28;20122;-57
2022/02/17 10:44:39;;;;;;;6.43;1.95;;;;;;;18.10;94.92;96752.28;5010775;28;20026;-58
2022/02/17 10:47:13;;;;;;;9.60;2.75;;;;;;;18.17;100.00;96750.75;5010852;28;20689;-59
2022/02/17 10:49:43;;;;;;;7.82;2.45;;;;;;;17.25;91.27;96761.63;5014128;28;20029;-60
2022/02/17 10:52:09;;;;;;;7.68;1.75;;;;;;;20.72;89.16;96761.50;5010409;28;20038;-60
2022/02/17 10:54:34;;;;;;;8.02;2.20;;;;;;;20.05;100.00;96788.44;5013513;28;20037;-60
2022/02/17 10:57:06;;;;;;;5.65;1.85;;;;;;;18.57;89.36;96791.94;5011288;28;20997;-58
2022/02/17 11:02:21;;;;;;;8.52;2.40;;;;;;;17.87;100.00;96800.06;5011203;28;20056;-60
2022/02/17 11:04:48;;;;;;;10.20;2.38;;;;;;;18.20;85.70;96783.94;5011508;28;20595;-58
2022/02/17 11:07:15;;;;;;;7.35;2.22;;;;;;;19.70;80.22;96773.38;5010129;28;20042;-59
2022/02/17 11:09:41;;;;;;;9.40;2.50;;;;;;;17.74;78.85;96781.00;5012111;28;20022;-60
2022/02/17 11:12:08;;;;;;;11.45;2.38;;;;;;;18.67;99.63;96787.47;5010419;28;20418;-59
2022/02/17 11:14:38;;;;;;;10.23;2.70;;;;;;;19.75;89.03;96787.84;5010653;28;20128;-60
2022/02/17 11:17:06;;;;;;;10.43;2.50;;;;;;;19.73;100.00;96778.41;5010730;28;20033;-59
2022/02/17 11:19:33;;;;;;;10.55;2.63;;;;;;;19.76;100.00;96784.22;5011098;28;20022;-59
2022/02/17 11:21:59;;;;;;;11.00;2.60;;;;;;;18.47;100.00;96788.47;5008704;28;20034;-58
2022/02/17 11:24:24;;;;;;;13.77;2.88;;;;;;;17.77;100.00;96783.34;5010372;28;20688;-59
2022/02/17 11:27:04;;;;;;;8.65;2.20;;;;;;;17.90;100.00;96804.19;5011497;28;20042;-58